sensor_id;sensor_type;location;lat;lon;timestamp;P1;durP1;ratioP1;P2;durP2;ratioP2
12585;SDS011;6358;50.760;0.282;2023-01-10T00:00:11;6.30;;;2.00;;
12585;SDS011;6358;50.760;0.282;2023-01-10T00:02:38;4.57;;;1.97;;
12585;SDS011;6358;50.760;0.282;2023-01-10T00:05:04;4.63;;;2.13;;
12585;SDS011;6358;50.760;0.282;2023-01-10T00:07:30;4.33;;;2.27;;
12585;SDS011;6358;50.760;0.282;2023-01-10T00:09:56;3.83;;;1.90;;
12585;SDS011;6358;50.760;0.282;2023-01-10T00:12:22;4.63;;;1.90;;
12585;SDS011;6358;50.760;0.282;2023-01-10T00:15:07;4.83;;;2.10;;
12585;SDS011;6358;50.760;0.282;2023-01-10T00:17:33;4.87;;;1.90;;
12585;SDS011;6358;50.760;0.282;2023-01-10T00:19:59;5.33;;;2.17;;
12585;SDS011;6358;50.760;0.282;2023-01-10T00:22:25;5.57;;;2.50;;
12585;SDS011;6358;50.760;0.282;2023-01-10T00:24:52;5.47;;;2.10;;
12585;SDS011;6358;50.760;0.282;2023-01-10T00:27:18;4.77;;;1.80;;
12585;SDS011;6358;50.760;0.282;2023-01-10T00:29:46;3.87;;;2.10;;
12585;SDS011;6358;50.760;0.282;2023-01-10T00:32:13;5.97;;;2.43;;
12585;SDS011;6358;50.760;0.282;2023-01-10T00:34:39;3.87;;;1.80;;
12585;SDS011;6358;50.760;0.282;2023-01-10T00:37:06;5.07;;;2.27;;
12585;SDS011;6358;50.760;0.282;2023-01-10T00:39:32;4.53;;;2.03;;
12585;SDS011;6358;50.760;0.282;2023-01-10T00:41:58;5.77;;;2.03;;
12585;SDS011;6358;50.760;0.282;2023-01-10T00:44:43;4.90;;;1.97;;
12585;SDS011;6358;50.760;0.282;2023-01-10T00:47:11;4.73;;;2.10;;
12585;SDS011;6358;50.760;0.282;2023-01-10T00:49:37;5.17;;;2.20;;
12585;SDS011;6358;50.760;0.282;2023-01-10T00:52:03;4.63;;;2.03;;
12585;SDS011;6358;50.760;0.282;2023-01-10T00:54:29;5.37;;;2.23;;
12585;SDS011;6358;50.760;0.282;2023-01-10T00:56:55;4.80;;;2.20;;
12585;SDS011;6358;50.760;0.282;2023-01-10T00:59:22;5.70;;;2.13;;
12585;SDS011;6358;50.760;0.282;2023-01-10T01:01:49;5.53;;;2.03;;
12585;SDS011;6358;50.760;0.282;2023-01-10T01:04:15;5.43;;;2.17;;
12585;SDS011;6358;50.760;0.282;2023-01-10T01:06:42;5.27;;;2.30;;
12585;SDS011;6358;50.760;0.282;2023-01-10T01:09:08;3.73;;;2.00;;
12585;SDS011;6358;50.760;0.282;2023-01-10T01:11:34;5.27;;;2.03;;
12585;SDS011;6358;50.760;0.282;2023-01-10T01:14:00;3.73;;;1.80;;
12585;SDS011;6358;50.760;0.282;2023-01-10T01:16:26;4.57;;;1.80;;
12585;SDS011;6358;50.760;0.282;2023-01-10T01:18:53;5.27;;;2.33;;
12585;SDS011;6358;50.760;0.282;2023-01-10T01:21:19;5.13;;;2.13;;
12585;SDS011;6358;50.760;0.282;2023-01-10T01:23:45;5.03;;;2.27;;
12585;SDS011;6358;50.760;0.282;2023-01-10T01:26:11;3.33;;;1.83;;
12585;SDS011;6358;50.760;0.282;2023-01-10T01:28:37;5.13;;;2.10;;
12585;SDS011;6358;50.760;0.282;2023-01-10T01:31:07;4.27;;;2.07;;
12585;SDS011;6358;50.760;0.282;2023-01-10T01:33:34;5.00;;;2.10;;
12585;SDS011;6358;50.760;0.282;2023-01-10T01:36:00;6.03;;;2.50;;
12585;SDS011;6358;50.760;0.282;2023-01-10T01:38:26;4.20;;;1.93;;
12585;SDS011;6358;50.760;0.282;2023-01-10T01:40:52;3.53;;;2.17;;
12585;SDS011;6358;50.760;0.282;2023-01-10T01:43:23;4.67;;;2.13;;
12585;SDS011;6358;50.760;0.282;2023-01-10T01:45:50;2.63;;;1.83;;
12585;SDS011;6358;50.760;0.282;2023-01-10T01:53:55;7.70;;;2.63;;
12585;SDS011;6358;50.760;0.282;2023-01-10T01:56:44;5.73;;;2.33;;
12585;SDS011;6358;50.760;0.282;2023-01-10T01:59:13;3.83;;;1.80;;
12585;SDS011;6358;50.760;0.282;2023-01-10T02:01:41;3.43;;;1.90;;
12585;SDS011;6358;50.760;0.282;2023-01-10T02:04:28;4.77;;;2.03;;
12585;SDS011;6358;50.760;0.282;2023-01-10T02:06:56;5.10;;;2.10;;
12585;SDS011;6358;50.760;0.282;2023-01-10T02:12:19;5.70;;;2.10;;
12585;SDS011;6358;50.760;0.282;2023-01-10T02:14:46;5.53;;;1.93;;
12585;SDS011;6358;50.760;0.282;2023-01-10T02:17:13;3.50;;;1.80;;
12585;SDS011;6358;50.760;0.282;2023-01-10T02:24:44;4.73;;;2.17;;
12585;SDS011;6358;50.760;0.282;2023-01-10T02:27:21;4.60;;;1.87;;
12585;SDS011;6358;50.760;0.282;2023-01-10T02:40:01;3.30;;;2.10;;
12585;SDS011;6358;50.760;0.282;2023-01-10T02:47:24;5.40;;;2.00;;
12585;SDS011;6358;50.760;0.282;2023-01-10T02:49:51;3.67;;;1.83;;
12585;SDS011;6358;50.760;0.282;2023-01-10T02:52:25;3.67;;;1.93;;
12585;SDS011;6358;50.760;0.282;2023-01-10T02:54:53;3.77;;;1.80;;
12585;SDS011;6358;50.760;0.282;2023-01-10T03:11:01;4.40;;;1.77;;
12585;SDS011;6358;50.760;0.282;2023-01-10T03:15:54;4.23;;;1.77;;
12585;SDS011;6358;50.760;0.282;2023-01-10T03:18:26;3.40;;;1.63;;
12585;SDS011;6358;50.760;0.282;2023-01-10T03:20:53;5.07;;;2.03;;
12585;SDS011;6358;50.760;0.282;2023-01-10T03:23:21;4.43;;;1.93;;
12585;SDS011;6358;50.760;0.282;2023-01-10T03:25:48;3.77;;;1.67;;
12585;SDS011;6358;50.760;0.282;2023-01-10T03:28:19;5.23;;;1.90;;
12585;SDS011;6358;50.760;0.282;2023-01-10T03:30:48;4.50;;;1.80;;
12585;SDS011;6358;50.760;0.282;2023-01-10T03:33:17;3.60;;;1.70;;
12585;SDS011;6358;50.760;0.282;2023-01-10T03:35:54;4.33;;;1.60;;
12585;SDS011;6358;50.760;0.282;2023-01-10T03:41:02;3.57;;;1.90;;
12585;SDS011;6358;50.760;0.282;2023-01-10T03:43:36;3.43;;;1.90;;
12585;SDS011;6358;50.760;0.282;2023-01-10T03:46:25;3.50;;;1.60;;
12585;SDS011;6358;50.760;0.282;2023-01-10T03:48:52;4.10;;;1.80;;
12585;SDS011;6358;50.760;0.282;2023-01-10T03:51:19;3.00;;;1.60;;
12585;SDS011;6358;50.760;0.282;2023-01-10T03:53:45;4.23;;;1.60;;
12585;SDS011;6358;50.760;0.282;2023-01-10T03:56:12;3.67;;;1.87;;
12585;SDS011;6358;50.760;0.282;2023-01-10T03:58:38;4.60;;;1.93;;
12585;SDS011;6358;50.760;0.282;2023-01-10T04:01:05;3.07;;;1.80;;
12585;SDS011;6358;50.760;0.282;2023-01-10T04:03:31;4.80;;;1.90;;
12585;SDS011;6358;50.760;0.282;2023-01-10T04:05:57;5.77;;;1.70;;
12585;SDS011;6358;50.760;0.282;2023-01-10T04:08:23;3.63;;;1.60;;
12585;SDS011;6358;50.760;0.282;2023-01-10T04:10:49;4.60;;;1.70;;
12585;SDS011;6358;50.760;0.282;2023-01-10T04:13:15;4.43;;;1.90;;
12585;SDS011;6358;50.760;0.282;2023-01-10T04:15:41;3.97;;;1.80;;
12585;SDS011;6358;50.760;0.282;2023-01-10T04:18:07;5.40;;;2.03;;
12585;SDS011;6358;50.760;0.282;2023-01-10T04:20:33;2.73;;;1.73;;
12585;SDS011;6358;50.760;0.282;2023-01-10T04:23:00;4.97;;;1.93;;
12585;SDS011;6358;50.760;0.282;2023-01-10T04:25:26;3.33;;;1.57;;
12585;SDS011;6358;50.760;0.282;2023-01-10T04:27:52;5.03;;;1.87;;
12585;SDS011;6358;50.760;0.282;2023-01-10T04:30:18;3.40;;;1.60;;
12585;SDS011;6358;50.760;0.282;2023-01-10T04:32:44;3.90;;;1.83;;
12585;SDS011;6358;50.760;0.282;2023-01-10T04:35:11;3.77;;;1.73;;
12585;SDS011;6358;50.760;0.282;2023-01-10T04:37:37;4.80;;;1.83;;
12585;SDS011;6358;50.760;0.282;2023-01-10T04:40:04;3.07;;;1.67;;
12585;SDS011;6358;50.760;0.282;2023-01-10T04:42:30;3.93;;;1.70;;
12585;SDS011;6358;50.760;0.282;2023-01-10T04:44:56;3.43;;;1.53;;
12585;SDS011;6358;50.760;0.282;2023-01-10T04:47:22;3.43;;;1.80;;
12585;SDS011;6358;50.760;0.282;2023-01-10T04:49:48;4.47;;;1.90;;
12585;SDS011;6358;50.760;0.282;2023-01-10T04:52:14;3.30;;;1.80;;
12585;SDS011;6358;50.760;0.282;2023-01-10T04:54:40;4.47;;;1.77;;
12585;SDS011;6358;50.760;0.282;2023-01-10T04:57:06;4.33;;;1.40;;
12585;SDS011;6358;50.760;0.282;2023-01-10T04:59:33;3.20;;;1.70;;
12585;SDS011;6358;50.760;0.282;2023-01-10T05:01:59;5.60;;;1.87;;
12585;SDS011;6358;50.760;0.282;2023-01-10T05:04:25;4.40;;;1.73;;
12585;SDS011;6358;50.760;0.282;2023-01-10T05:06:51;4.57;;;1.67;;
12585;SDS011;6358;50.760;0.282;2023-01-10T05:09:17;3.33;;;1.83;;
12585;SDS011;6358;50.760;0.282;2023-01-10T05:11:43;4.87;;;1.93;;
12585;SDS011;6358;50.760;0.282;2023-01-10T05:14:09;4.07;;;1.90;;
12585;SDS011;6358;50.760;0.282;2023-01-10T05:16:35;3.27;;;1.63;;
12585;SDS011;6358;50.760;0.282;2023-01-10T05:19:01;5.43;;;1.90;;
12585;SDS011;6358;50.760;0.282;2023-01-10T05:21:27;3.00;;;1.50;;
12585;SDS011;6358;50.760;0.282;2023-01-10T05:23:53;5.17;;;1.90;;
12585;SDS011;6358;50.760;0.282;2023-01-10T05:26:20;4.33;;;1.63;;
12585;SDS011;6358;50.760;0.282;2023-01-10T05:28:47;3.20;;;1.50;;
12585;SDS011;6358;50.760;0.282;2023-01-10T05:31:14;5.47;;;1.80;;
12585;SDS011;6358;50.760;0.282;2023-01-10T05:33:48;3.63;;;1.47;;
12585;SDS011;6358;50.760;0.282;2023-01-10T05:36:14;4.33;;;1.80;;
12585;SDS011;6358;50.760;0.282;2023-01-10T05:38:41;4.03;;;1.70;;
12585;SDS011;6358;50.760;0.282;2023-01-10T05:41:07;3.03;;;1.60;;
12585;SDS011;6358;50.760;0.282;2023-01-10T05:43:33;4.77;;;1.80;;
12585;SDS011;6358;50.760;0.282;2023-01-10T05:45:59;4.23;;;1.60;;
12585;SDS011;6358;50.760;0.282;2023-01-10T05:48:25;4.00;;;1.80;;
12585;SDS011;6358;50.760;0.282;2023-01-10T05:50:52;3.93;;;1.80;;
12585;SDS011;6358;50.760;0.282;2023-01-10T05:53:18;4.50;;;1.80;;
12585;SDS011;6358;50.760;0.282;2023-01-10T05:56:18;5.60;;;1.43;;
12585;SDS011;6358;50.760;0.282;2023-01-10T05:58:37;3.73;;;1.70;;
12585;SDS011;6358;50.760;0.282;2023-01-10T06:01:03;4.63;;;1.70;;
12585;SDS011;6358;50.760;0.282;2023-01-10T06:03:29;3.33;;;1.50;;
12585;SDS011;6358;50.760;0.282;2023-01-10T06:05:55;3.90;;;1.60;;
12585;SDS011;6358;50.760;0.282;2023-01-10T06:08:22;2.97;;;1.60;;
12585;SDS011;6358;50.760;0.282;2023-01-10T06:10:48;4.93;;;1.80;;
12585;SDS011;6358;50.760;0.282;2023-01-10T06:13:14;5.00;;;2.00;;
12585;SDS011;6358;50.760;0.282;2023-01-10T06:15:40;5.17;;;1.77;;
12585;SDS011;6358;50.760;0.282;2023-01-10T06:18:07;4.80;;;1.73;;
12585;SDS011;6358;50.760;0.282;2023-01-10T06:20:34;5.57;;;1.70;;
12585;SDS011;6358;50.760;0.282;2023-01-10T06:23:00;2.83;;;1.70;;
12585;SDS011;6358;50.760;0.282;2023-01-10T06:25:29;4.57;;;1.67;;
12585;SDS011;6358;50.760;0.282;2023-01-10T06:27:55;3.27;;;1.70;;
12585;SDS011;6358;50.760;0.282;2023-01-10T06:30:21;3.67;;;1.50;;
12585;SDS011;6358;50.760;0.282;2023-01-10T06:32:47;5.23;;;1.70;;
12585;SDS011;6358;50.760;0.282;2023-01-10T06:35:13;3.93;;;1.50;;
12585;SDS011;6358;50.760;0.282;2023-01-10T06:37:39;3.17;;;1.60;;
12585;SDS011;6358;50.760;0.282;2023-01-10T06:40:05;3.40;;;1.73;;
12585;SDS011;6358;50.760;0.282;2023-01-10T06:42:32;4.03;;;1.60;;
12585;SDS011;6358;50.760;0.282;2023-01-10T06:44:58;3.07;;;1.60;;
12585;SDS011;6358;50.760;0.282;2023-01-10T06:47:24;2.70;;;1.53;;
12585;SDS011;6358;50.760;0.282;2023-01-10T06:49:50;5.03;;;1.90;;
12585;SDS011;6358;50.760;0.282;2023-01-10T06:52:16;4.30;;;1.83;;
12585;SDS011;6358;50.760;0.282;2023-01-10T06:54:42;4.40;;;1.80;;
12585;SDS011;6358;50.760;0.282;2023-01-10T06:57:08;3.80;;;1.73;;
12585;SDS011;6358;50.760;0.282;2023-01-10T06:59:34;5.90;;;2.03;;
12585;SDS011;6358;50.760;0.282;2023-01-10T07:02:00;3.23;;;1.53;;
12585;SDS011;6358;50.760;0.282;2023-01-10T07:04:26;4.43;;;1.93;;
12585;SDS011;6358;50.760;0.282;2023-01-10T07:06:53;3.90;;;1.80;;
12585;SDS011;6358;50.760;0.282;2023-01-10T07:09:19;4.73;;;1.80;;
12585;SDS011;6358;50.760;0.282;2023-01-10T07:11:45;4.83;;;1.73;;
12585;SDS011;6358;50.760;0.282;2023-01-10T07:14:11;4.97;;;1.80;;
12585;SDS011;6358;50.760;0.282;2023-01-10T07:16:37;5.37;;;2.07;;
12585;SDS011;6358;50.760;0.282;2023-01-10T07:19:03;3.77;;;1.73;;
12585;SDS011;6358;50.760;0.282;2023-01-10T07:21:29;5.40;;;2.10;;
12585;SDS011;6358;50.760;0.282;2023-01-10T07:23:56;5.13;;;1.97;;
12585;SDS011;6358;50.760;0.282;2023-01-10T07:26:22;4.83;;;2.00;;
12585;SDS011;6358;50.760;0.282;2023-01-10T07:28:48;3.73;;;1.70;;
12585;SDS011;6358;50.760;0.282;2023-01-10T07:31:15;3.43;;;1.67;;
12585;SDS011;6358;50.760;0.282;2023-01-10T07:33:41;5.73;;;1.93;;
12585;SDS011;6358;50.760;0.282;2023-01-10T07:36:07;3.03;;;1.60;;
12585;SDS011;6358;50.760;0.282;2023-01-10T07:38:33;5.50;;;2.10;;
12585;SDS011;6358;50.760;0.282;2023-01-10T07:41:03;4.30;;;1.67;;
12585;SDS011;6358;50.760;0.282;2023-01-10T07:43:29;4.43;;;2.00;;
12585;SDS011;6358;50.760;0.282;2023-01-10T07:45:59;4.60;;;1.90;;
12585;SDS011;6358;50.760;0.282;2023-01-10T07:48:25;3.67;;;1.67;;
12585;SDS011;6358;50.760;0.282;2023-01-10T07:50:55;3.17;;;1.60;;
12585;SDS011;6358;50.760;0.282;2023-01-10T07:53:21;3.90;;;1.90;;
12585;SDS011;6358;50.760;0.282;2023-01-10T07:55:48;3.50;;;1.60;;
12585;SDS011;6358;50.760;0.282;2023-01-10T07:58:14;2.90;;;1.60;;
12585;SDS011;6358;50.760;0.282;2023-01-10T08:00:40;3.27;;;1.80;;
12585;SDS011;6358;50.760;0.282;2023-01-10T08:03:08;3.83;;;1.87;;
12585;SDS011;6358;50.760;0.282;2023-01-10T08:05:35;4.13;;;1.80;;
12585;SDS011;6358;50.760;0.282;2023-01-10T08:08:05;3.87;;;1.60;;
12585;SDS011;6358;50.760;0.282;2023-01-10T08:10:32;3.83;;;1.80;;
12585;SDS011;6358;50.760;0.282;2023-01-10T08:12:58;6.37;;;2.10;;
12585;SDS011;6358;50.760;0.282;2023-01-10T08:15:24;5.03;;;2.07;;
12585;SDS011;6358;50.760;0.282;2023-01-10T08:17:50;2.87;;;1.63;;
12585;SDS011;6358;50.760;0.282;2023-01-10T08:20:16;5.07;;;2.00;;
12585;SDS011;6358;50.760;0.282;2023-01-10T08:22:42;4.87;;;1.87;;
12585;SDS011;6358;50.760;0.282;2023-01-10T08:25:09;5.00;;;2.03;;
12585;SDS011;6358;50.760;0.282;2023-01-10T08:27:35;5.13;;;2.00;;
12585;SDS011;6358;50.760;0.282;2023-01-10T08:30:02;3.37;;;2.00;;
12585;SDS011;6358;50.760;0.282;2023-01-10T08:32:28;6.70;;;1.87;;
12585;SDS011;6358;50.760;0.282;2023-01-10T08:34:54;4.47;;;1.60;;
12585;SDS011;6358;50.760;0.282;2023-01-10T08:37:20;9.10;;;2.40;;
12585;SDS011;6358;50.760;0.282;2023-01-10T08:39:47;4.73;;;1.77;;
12585;SDS011;6358;50.760;0.282;2023-01-10T08:42:13;4.97;;;1.80;;
12585;SDS011;6358;50.760;0.282;2023-01-10T08:44:41;7.63;;;2.17;;
12585;SDS011;6358;50.760;0.282;2023-01-10T08:47:07;5.50;;;1.90;;
12585;SDS011;6358;50.760;0.282;2023-01-10T08:49:33;10.07;;;2.53;;
12585;SDS011;6358;50.760;0.282;2023-01-10T08:52:00;4.60;;;1.80;;
12585;SDS011;6358;50.760;0.282;2023-01-10T08:54:26;5.83;;;2.03;;
12585;SDS011;6358;50.760;0.282;2023-01-10T08:56:53;4.10;;;2.00;;
12585;SDS011;6358;50.760;0.282;2023-01-10T08:59:19;8.03;;;2.30;;
12585;SDS011;6358;50.760;0.282;2023-01-10T09:01:45;7.43;;;2.37;;
12585;SDS011;6358;50.760;0.282;2023-01-10T09:04:11;5.63;;;2.30;;
12585;SDS011;6358;50.760;0.282;2023-01-10T09:06:37;6.33;;;2.43;;
12585;SDS011;6358;50.760;0.282;2023-01-10T09:09:03;5.60;;;2.40;;
12585;SDS011;6358;50.760;0.282;2023-01-10T09:11:30;6.77;;;2.07;;
12585;SDS011;6358;50.760;0.282;2023-01-10T09:13:56;8.83;;;2.00;;
12585;SDS011;6358;50.760;0.282;2023-01-10T09:16:22;6.33;;;2.40;;
12585;SDS011;6358;50.760;0.282;2023-01-10T09:18:48;4.77;;;2.20;;
12585;SDS011;6358;50.760;0.282;2023-01-10T09:21:14;6.43;;;2.00;;
12585;SDS011;6358;50.760;0.282;2023-01-10T09:23:41;5.10;;;2.00;;
12585;SDS011;6358;50.760;0.282;2023-01-10T09:26:08;6.77;;;2.03;;
12585;SDS011;6358;50.760;0.282;2023-01-10T09:28:34;4.33;;;1.90;;
12585;SDS011;6358;50.760;0.282;2023-01-10T09:31:00;6.17;;;2.00;;
12585;SDS011;6358;50.760;0.282;2023-01-10T09:33:28;4.07;;;1.90;;
12585;SDS011;6358;50.760;0.282;2023-01-10T09:35:57;5.53;;;1.80;;
12585;SDS011;6358;50.760;0.282;2023-01-10T09:38:23;5.00;;;2.13;;
12585;SDS011;6358;50.760;0.282;2023-01-10T09:43:25;5.73;;;1.70;;
12585;SDS011;6358;50.760;0.282;2023-01-10T09:45:58;3.33;;;1.83;;
12585;SDS011;6358;50.760;0.282;2023-01-10T09:48:40;4.23;;;1.80;;
12585;SDS011;6358;50.760;0.282;2023-01-10T09:53:35;5.43;;;1.93;;
12585;SDS011;6358;50.760;0.282;2023-01-10T09:56:02;3.93;;;1.77;;
12585;SDS011;6358;50.760;0.282;2023-01-10T09:58:30;4.73;;;1.80;;
12585;SDS011;6358;50.760;0.282;2023-01-10T10:00:58;4.00;;;1.90;;
12585;SDS011;6358;50.760;0.282;2023-01-10T10:05:57;3.77;;;1.60;;
12585;SDS011;6358;50.760;0.282;2023-01-10T10:08:23;4.33;;;1.40;;
12585;SDS011;6358;50.760;0.282;2023-01-10T10:13:34;3.10;;;1.50;;
12585;SDS011;6358;50.760;0.282;2023-01-10T10:16:06;2.40;;;1.30;;
12585;SDS011;6358;50.760;0.282;2023-01-10T10:18:47;4.17;;;1.67;;
12585;SDS011;6358;50.760;0.282;2023-01-10T10:21:18;3.07;;;1.50;;
12585;SDS011;6358;50.760;0.282;2023-01-10T10:26:39;3.43;;;1.60;;
12585;SDS011;6358;50.760;0.282;2023-01-10T10:34:46;2.97;;;1.60;;
12585;SDS011;6358;50.760;0.282;2023-01-10T10:42:28;5.37;;;1.93;;
12585;SDS011;6358;50.760;0.282;2023-01-10T10:47:36;3.97;;;1.60;;
12585;SDS011;6358;50.760;0.282;2023-01-10T10:50:07;5.13;;;2.00;;
12585;SDS011;6358;50.760;0.282;2023-01-10T10:52:41;2.93;;;1.80;;
12585;SDS011;6358;50.760;0.282;2023-01-10T10:55:15;8.27;;;2.00;;
12585;SDS011;6358;50.760;0.282;2023-01-10T10:57:42;3.50;;;1.87;;
12585;SDS011;6358;50.760;0.282;2023-01-10T11:00:12;3.23;;;1.53;;
12585;SDS011;6358;50.760;0.282;2023-01-10T11:02:40;5.90;;;2.00;;
12585;SDS011;6358;50.760;0.282;2023-01-10T11:05:13;3.17;;;1.63;;
12585;SDS011;6358;50.760;0.282;2023-01-10T11:07:41;2.77;;;1.60;;
12585;SDS011;6358;50.760;0.282;2023-01-10T11:10:28;4.13;;;1.87;;
12585;SDS011;6358;50.760;0.282;2023-01-10T11:13:04;4.83;;;1.90;;
12585;SDS011;6358;50.760;0.282;2023-01-10T11:15:40;4.37;;;1.90;;
12585;SDS011;6358;50.760;0.282;2023-01-10T11:18:11;3.87;;;1.87;;
12585;SDS011;6358;50.760;0.282;2023-01-10T11:20:48;4.57;;;2.00;;
12585;SDS011;6358;50.760;0.282;2023-01-10T11:23:22;6.93;;;2.50;;
12585;SDS011;6358;50.760;0.282;2023-01-10T11:25:49;5.77;;;2.10;;
12585;SDS011;6358;50.760;0.282;2023-01-10T11:28:15;6.10;;;2.40;;
12585;SDS011;6358;50.760;0.282;2023-01-10T11:30:44;4.30;;;2.27;;
12585;SDS011;6358;50.760;0.282;2023-01-10T11:33:21;4.77;;;2.20;;
12585;SDS011;6358;50.760;0.282;2023-01-10T11:36:07;3.43;;;1.70;;
12585;SDS011;6358;50.760;0.282;2023-01-10T11:38:34;4.30;;;2.03;;
12585;SDS011;6358;50.760;0.282;2023-01-10T11:41:04;5.07;;;2.27;;
12585;SDS011;6358;50.760;0.282;2023-01-10T11:45:59;5.47;;;2.40;;
12585;SDS011;6358;50.760;0.282;2023-01-10T11:48:26;6.27;;;2.30;;
12585;SDS011;6358;50.760;0.282;2023-01-10T11:50:56;4.00;;;1.90;;
12585;SDS011;6358;50.760;0.282;2023-01-10T11:53:34;5.80;;;2.00;;
12585;SDS011;6358;50.760;0.282;2023-01-10T11:56:02;5.03;;;2.27;;
12585;SDS011;6358;50.760;0.282;2023-01-10T11:58:29;5.43;;;2.47;;
12585;SDS011;6358;50.760;0.282;2023-01-10T12:00:56;5.93;;;2.63;;
12585;SDS011;6358;50.760;0.282;2023-01-10T12:05:53;5.77;;;2.10;;
12585;SDS011;6358;50.760;0.282;2023-01-10T12:08:24;4.77;;;2.23;;
12585;SDS011;6358;50.760;0.282;2023-01-10T12:10:58;4.97;;;2.17;;
12585;SDS011;6358;50.760;0.282;2023-01-10T12:13:26;6.47;;;2.70;;
12585;SDS011;6358;50.760;0.282;2023-01-10T12:16:05;4.53;;;2.30;;
12585;SDS011;6358;50.760;0.282;2023-01-10T12:18:39;5.97;;;2.60;;
12585;SDS011;6358;50.760;0.282;2023-01-10T12:21:05;6.50;;;2.50;;
12585;SDS011;6358;50.760;0.282;2023-01-10T12:23:33;5.83;;;2.70;;
12585;SDS011;6358;50.760;0.282;2023-01-10T12:26:04;4.30;;;2.37;;
12585;SDS011;6358;50.760;0.282;2023-01-10T12:28:31;5.60;;;2.30;;
12585;SDS011;6358;50.760;0.282;2023-01-10T12:31:02;10.23;;;2.03;;
12585;SDS011;6358;50.760;0.282;2023-01-10T12:33:37;6.93;;;2.50;;
12585;SDS011;6358;50.760;0.282;2023-01-10T12:41:22;4.40;;;2.10;;
12585;SDS011;6358;50.760;0.282;2023-01-10T12:44:11;4.77;;;2.13;;
12585;SDS011;6358;50.760;0.282;2023-01-10T12:51:47;4.93;;;2.30;;
12585;SDS011;6358;50.760;0.282;2023-01-10T12:54:15;5.47;;;2.33;;
12585;SDS011;6358;50.760;0.282;2023-01-10T12:56:43;6.47;;;2.13;;
12585;SDS011;6358;50.760;0.282;2023-01-10T12:59:19;4.83;;;2.23;;
12585;SDS011;6358;50.760;0.282;2023-01-10T13:01:49;4.80;;;2.40;;
12585;SDS011;6358;50.760;0.282;2023-01-10T13:04:17;5.07;;;2.30;;
12585;SDS011;6358;50.760;0.282;2023-01-10T13:06:46;5.63;;;2.53;;
12585;SDS011;6358;50.760;0.282;2023-01-10T13:09:14;4.13;;;2.10;;
12585;SDS011;6358;50.760;0.282;2023-01-10T13:11:49;4.60;;;2.30;;
12585;SDS011;6358;50.760;0.282;2023-01-10T13:14:18;5.77;;;2.30;;
12585;SDS011;6358;50.760;0.282;2023-01-10T13:16:49;5.07;;;2.23;;
12585;SDS011;6358;50.760;0.282;2023-01-10T13:21:46;4.70;;;2.17;;
12585;SDS011;6358;50.760;0.282;2023-01-10T13:24:19;4.97;;;2.50;;
12585;SDS011;6358;50.760;0.282;2023-01-10T13:26:53;6.13;;;2.27;;
12585;SDS011;6358;50.760;0.282;2023-01-10T13:29:24;7.00;;;2.70;;
12585;SDS011;6358;50.760;0.282;2023-01-10T13:31:51;4.53;;;2.43;;
12585;SDS011;6358;50.760;0.282;2023-01-10T13:34:24;4.37;;;2.17;;
12585;SDS011;6358;50.760;0.282;2023-01-10T13:36:55;4.37;;;2.27;;
12585;SDS011;6358;50.760;0.282;2023-01-10T13:52:53;6.27;;;2.67;;
12585;SDS011;6358;50.760;0.282;2023-01-10T13:57:55;7.27;;;2.40;;
12585;SDS011;6358;50.760;0.282;2023-01-10T14:00:23;4.90;;;2.37;;
12585;SDS011;6358;50.760;0.282;2023-01-10T14:03:34;5.90;;;2.30;;
12585;SDS011;6358;50.760;0.282;2023-01-10T14:05:54;6.63;;;2.43;;
12585;SDS011;6358;50.760;0.282;2023-01-10T14:08:21;5.77;;;2.43;;
12585;SDS011;6358;50.760;0.282;2023-01-10T14:10:47;5.97;;;2.43;;
12585;SDS011;6358;50.760;0.282;2023-01-10T14:13:29;6.80;;;2.60;;
12585;SDS011;6358;50.760;0.282;2023-01-10T14:15:55;4.70;;;2.30;;
12585;SDS011;6358;50.760;0.282;2023-01-10T14:18:22;5.17;;;2.63;;
12585;SDS011;6358;50.760;0.282;2023-01-10T14:21:03;5.97;;;2.50;;
12585;SDS011;6358;50.760;0.282;2023-01-10T14:23:36;5.83;;;2.43;;
12585;SDS011;6358;50.760;0.282;2023-01-10T14:26:12;4.27;;;2.37;;
12585;SDS011;6358;50.760;0.282;2023-01-10T14:28:41;6.57;;;2.10;;
12585;SDS011;6358;50.760;0.282;2023-01-10T14:31:17;6.90;;;2.40;;
12585;SDS011;6358;50.760;0.282;2023-01-10T14:33:44;6.30;;;2.60;;
12585;SDS011;6358;50.760;0.282;2023-01-10T14:36:15;5.77;;;2.57;;
12585;SDS011;6358;50.760;0.282;2023-01-10T14:38:43;5.33;;;2.40;;
12585;SDS011;6358;50.760;0.282;2023-01-10T14:41:27;6.33;;;2.57;;
12585;SDS011;6358;50.760;0.282;2023-01-10T14:49:20;5.90;;;2.73;;
12585;SDS011;6358;50.760;0.282;2023-01-10T14:51:46;6.47;;;2.77;;
12585;SDS011;6358;50.760;0.282;2023-01-10T14:54:19;11.40;;;3.77;;
12585;SDS011;6358;50.760;0.282;2023-01-10T14:56:51;13.60;;;3.63;;
12585;SDS011;6358;50.760;0.282;2023-01-10T15:01:47;11.70;;;3.70;;
12585;SDS011;6358;50.760;0.282;2023-01-10T15:04:15;10.30;;;3.13;;
12585;SDS011;6358;50.760;0.282;2023-01-10T15:09:17;8.50;;;3.37;;
12585;SDS011;6358;50.760;0.282;2023-01-10T15:11:43;9.90;;;3.37;;
12585;SDS011;6358;50.760;0.282;2023-01-10T15:14:10;11.30;;;3.30;;
12585;SDS011;6358;50.760;0.282;2023-01-10T15:16:42;9.90;;;3.17;;
12585;SDS011;6358;50.760;0.282;2023-01-10T15:19:12;9.67;;;2.93;;
12585;SDS011;6358;50.760;0.282;2023-01-10T15:21:43;9.30;;;2.87;;
12585;SDS011;6358;50.760;0.282;2023-01-10T15:24:30;7.30;;;2.70;;
12585;SDS011;6358;50.760;0.282;2023-01-10T15:26:58;8.97;;;3.33;;
12585;SDS011;6358;50.760;0.282;2023-01-10T15:29:25;7.13;;;2.87;;
12585;SDS011;6358;50.760;0.282;2023-01-10T15:31:52;8.10;;;3.07;;
12585;SDS011;6358;50.760;0.282;2023-01-10T15:34:20;8.40;;;3.20;;
12585;SDS011;6358;50.760;0.282;2023-01-10T15:36:48;7.13;;;2.77;;
12585;SDS011;6358;50.760;0.282;2023-01-10T15:39:19;7.33;;;2.77;;
12585;SDS011;6358;50.760;0.282;2023-01-10T15:41:46;6.63;;;2.97;;
12585;SDS011;6358;50.760;0.282;2023-01-10T15:49:53;6.97;;;2.57;;
12585;SDS011;6358;50.760;0.282;2023-01-10T15:52:22;6.10;;;2.70;;
12585;SDS011;6358;50.760;0.282;2023-01-10T15:54:48;5.47;;;2.83;;
12585;SDS011;6358;50.760;0.282;2023-01-10T15:57:21;7.50;;;3.00;;
12585;SDS011;6358;50.760;0.282;2023-01-10T15:59:49;6.17;;;2.70;;
12585;SDS011;6358;50.760;0.282;2023-01-10T16:02:20;8.80;;;2.97;;
12585;SDS011;6358;50.760;0.282;2023-01-10T16:04:47;6.47;;;2.70;;
12585;SDS011;6358;50.760;0.282;2023-01-10T16:07:21;7.57;;;3.03;;
12585;SDS011;6358;50.760;0.282;2023-01-10T16:09:58;6.07;;;2.70;;
12585;SDS011;6358;50.760;0.282;2023-01-10T16:12:27;6.73;;;2.73;;
12585;SDS011;6358;50.760;0.282;2023-01-10T16:15:19;8.33;;;2.90;;
12585;SDS011;6358;50.760;0.282;2023-01-10T16:17:46;6.63;;;2.67;;
12585;SDS011;6358;50.760;0.282;2023-01-10T16:20:13;4.67;;;2.47;;
12585;SDS011;6358;50.760;0.282;2023-01-10T16:22:39;7.10;;;2.70;;
12585;SDS011;6358;50.760;0.282;2023-01-10T16:25:05;8.27;;;3.20;;
12585;SDS011;6358;50.760;0.282;2023-01-10T16:27:31;6.40;;;2.70;;
12585;SDS011;6358;50.760;0.282;2023-01-10T16:29:58;6.77;;;2.57;;
12585;SDS011;6358;50.760;0.282;2023-01-10T16:32:24;5.63;;;2.53;;
12585;SDS011;6358;50.760;0.282;2023-01-10T16:34:50;5.33;;;2.70;;
12585;SDS011;6358;50.760;0.282;2023-01-10T16:37:16;5.00;;;2.20;;
12585;SDS011;6358;50.760;0.282;2023-01-10T16:39:42;7.27;;;2.63;;
12585;SDS011;6358;50.760;0.282;2023-01-10T16:42:09;5.93;;;2.67;;
12585;SDS011;6358;50.760;0.282;2023-01-10T16:45:10;6.20;;;2.47;;
12585;SDS011;6358;50.760;0.282;2023-01-10T16:47:36;6.33;;;2.53;;
12585;SDS011;6358;50.760;0.282;2023-01-10T16:50:02;5.10;;;2.60;;
12585;SDS011;6358;50.760;0.282;2023-01-10T16:52:28;4.77;;;2.33;;
12585;SDS011;6358;50.760;0.282;2023-01-10T16:54:55;5.80;;;2.50;;
12585;SDS011;6358;50.760;0.282;2023-01-10T16:57:22;4.70;;;2.23;;
12585;SDS011;6358;50.760;0.282;2023-01-10T16:59:48;4.13;;;2.20;;
12585;SDS011;6358;50.760;0.282;2023-01-10T17:02:15;5.53;;;2.47;;
12585;SDS011;6358;50.760;0.282;2023-01-10T17:04:43;6.57;;;2.30;;
12585;SDS011;6358;50.760;0.282;2023-01-10T17:07:10;5.07;;;2.50;;
12585;SDS011;6358;50.760;0.282;2023-01-10T17:09:37;4.10;;;2.27;;
12585;SDS011;6358;50.760;0.282;2023-01-10T17:12:04;5.93;;;2.30;;